Time;durP1;ratioP1;P1;durP2;ratioP2;P2;SDS_P1;SDS_P2;PMS_P1;PMS_P2;Temp;Humidity;BMP_temperature;BMP_pressure;BME280_temperature;BME280_humidity;BME280_pressure;Samples;Min_cycle;Max_cycle;Signal;HPM_P1;HPM_P2
2021/04/11 00:00:15;;;;;;;46.15;21.35;;;7.30;99.90;;;8.33;89.37;100927.72;5004919;28;20221;-77
2021/04/11 00:02:42;;;;;;;44.47;21.33;;;7.30;99.90;;;8.31;89.65;100928.63;5004363;28;20285;-77
2021/04/11 00:05:10;;;;;;;46.05;20.80;;;7.30;99.90;;;8.32;89.66;100927.75;5005531;28;20198;-76
2021/04/11 00:07:38;;;;;;;44.58;21.85;;;7.30;99.90;;;8.35;90.24;100930.28;5005669;28;20221;-78
2021/04/11 00:10:06;;;;;;;47.63;22.00;;;7.30;99.90;;;8.37;90.17;100928.50;5008947;28;20214;-75
2021/04/11 00:12:33;;;;;;;47.38;21.67;;;7.30;99.90;;;8.37;89.87;100915.47;5004335;28;20198;-77
2021/04/11 00:14:59;;;;;;;44.47;20.67;;;7.30;99.90;;;8.39;89.96;100916.28;5011279;28;20273;-77
2021/04/11 00:17:25;;;;;;;49.17;22.17;;;7.40;99.90;;;8.35;90.15;100918.13;5008993;28;20287;-78
2021/04/11 00:19:52;;;;;;;48.63;22.02;;;7.40;99.90;;;8.38;90.11;100914.56;5015368;28;20300;-77
2021/04/11 00:22:18;;;;;;;46.65;22.80;;;7.40;99.90;;;8.41;89.91;100912.72;5021545;28;20214;-78
2021/04/11 00:24:45;;;;;;;49.92;21.83;;;7.40;99.90;;;8.40;89.96;100902.34;5008043;28;20202;-77
2021/04/11 00:27:12;;;;;;;53.28;24.05;;;7.30;99.90;;;8.38;89.90;100894.56;5001928;28;20186;-78
2021/04/11 00:29:38;;;;;;;45.00;22.15;;;7.30;99.90;;;8.35;89.79;100894.66;5019060;28;20237;-75
2021/04/11 00:32:07;;;;;;;48.70;22.98;;;7.30;99.90;;;8.35;90.08;100896.38;5006467;28;20200;-78
2021/04/11 00:34:34;;;;;;;51.88;24.25;;;7.30;99.90;;;8.34;90.48;100887.69;5006846;28;21940;-77
2021/04/11 00:37:00;;;;;;;48.92;23.25;;;7.30;99.90;;;8.35;90.45;100878.13;5019454;28;20204;-76
2021/04/11 00:39:27;;;;;;;47.80;24.17;;;7.30;99.90;;;8.35;90.79;100875.53;5017798;28;20245;-78
2021/04/11 00:42:02;;;;;;;54.40;25.23;;;7.20;99.90;;;8.33;90.72;100874.72;5002366;28;20221;-77
2021/04/11 00:44:30;;;;;;;54.10;24.25;;;7.30;99.90;;;8.30;90.83;100866.97;5015309;28;20197;-78
2021/04/11 00:47:00;;;;;;;50.92;24.23;;;7.30;99.90;;;8.29;91.08;100867.88;5001212;28;20197;-76
2021/04/11 00:49:31;;;;;;;55.22;25.70;;;7.30;99.90;;;8.29;91.07;100867.88;5016265;28;20221;-78
2021/04/11 00:51:59;;;;;;;57.00;25.42;;;7.30;99.90;;;8.28;91.42;100861.81;5009406;28;20186;-76
2021/04/11 00:54:26;;;;;;;53.88;25.08;;;7.20;99.90;;;8.29;91.60;100858.28;5019705;28;20206;-76
2021/04/11 00:56:54;;;;;;;48.88;24.90;;;7.20;99.90;;;8.30;91.76;100867.84;5016590;28;20198;-78
2021/04/11 00:59:21;;;;;;;49.20;24.42;;;7.30;99.90;;;8.32;91.51;100859.97;5011911;28;20274;-77
2021/04/11 01:01:48;;;;;;;51.17;25.67;;;7.30;99.90;;;8.33;91.79;100856.47;5027458;28;20304;-77
2021/04/11 01:04:17;;;;;;;52.90;25.45;;;7.30;99.90;;;8.29;92.03;100847.88;5000686;28;20202;-77
2021/04/11 01:06:50;;;;;;;52.83;25.45;;;7.30;99.90;;;8.26;91.79;100857.50;5008751;28;20248;-77
2021/04/11 01:09:21;;;;;;;54.60;26.17;;;7.20;99.90;;;8.26;91.90;100847.09;5017209;28;20241;-76
2021/04/11 01:11:51;;;;;;;55.65;26.80;;;7.30;99.90;;;8.26;92.21;100840.13;5027465;28;20201;-77
2021/04/11 01:14:20;;;;;;;51.67;25.77;;;7.30;99.90;;;8.28;92.12;100840.09;5010329;28;20257;-77
2021/04/11 01:16:47;;;;;;;60.40;26.45;;;7.30;99.90;;;8.28;92.52;100840.09;5025100;28;20211;-78
2021/04/11 01:19:19;;;;;;;59.13;27.13;;;7.30;99.90;;;8.29;92.43;100847.03;5009145;28;20247;-77
2021/04/11 01:21:57;;;;;;;62.58;27.45;;;7.20;99.90;;;8.27;92.46;100833.19;5032285;28;20240;-77
2021/04/11 01:24:36;;;;;;;52.58;26.38;;;7.20;99.90;;;8.26;92.48;100836.66;5025183;28;20198;-77
2021/04/11 01:27:07;;;;;;;56.25;25.13;;;7.30;99.90;;;8.26;92.64;100832.31;5006477;28;20609;-78
2021/04/11 01:29:35;;;;;;;56.70;27.70;;;7.30;99.90;;;8.29;92.58;100831.38;5011163;28;20225;-77
2021/04/11 01:32:04;;;;;;;56.40;27.27;;;7.30;99.90;;;8.29;92.91;100827.00;5006835;28;20285;-77
2021/04/11 01:34:30;;;;;;;64.45;28.33;;;7.30;99.90;;;8.28;92.85;100824.44;5018024;28;20237;-77
2021/04/11 01:36:59;;;;;;;58.58;27.83;;;7.30;99.90;;;8.29;92.65;100823.56;5012283;28;20225;-77
2021/04/11 01:39:31;;;;;;;58.50;27.13;;;7.30;99.90;;;8.28;92.99;100821.84;5025672;28;20250;-78
2021/04/11 01:42:01;;;;;;;56.33;27.63;;;7.30;99.90;;;8.27;93.20;100813.16;5008779;28;20228;-76
2021/04/11 01:44:35;;;;;;;58.38;27.40;;;7.30;99.90;;;8.25;92.91;100814.97;5009418;28;20198;-77
2021/04/11 01:47:05;;;;;;;58.88;27.73;;;7.30;99.90;;;8.25;92.98;100811.50;5023462;28;20273;-77
2021/04/11 01:49:37;;;;;;;57.67;27.55;;;7.30;99.90;;;8.23;93.31;100800.22;5012790;28;20225;-77
2021/04/11 01:52:09;;;;;;;53.38;26.55;;;7.30;99.90;;;8.25;93.15;100799.34;5040402;28;20220;-78
2021/04/11 01:54:39;;;;;;;58.78;28.63;;;7.30;99.90;;;8.28;93.21;100794.03;5024343;28;20198;-77
2021/04/11 01:57:10;;;;;;;61.80;28.77;;;7.30;99.90;;;8.29;93.42;100787.06;5021722;28;20200;-77
2021/04/11 01:59:37;;;;;;;61.97;29.58;;;7.30;99.90;;;8.28;93.71;100783.59;5031567;28;20390;-77
2021/04/11 02:02:07;;;;;;;58.20;28.38;;;7.30;99.90;;;8.28;93.72;100772.31;5024059;28;20217;-77
2021/04/11 02:04:34;;;;;;;60.35;28.98;;;7.30;99.90;;;8.30;93.51;100770.53;5025582;28;20942;-77
2021/04/11 02:07:07;;;;;;;64.82;29.00;;;7.30;99.90;;;8.32;93.80;100768.75;5026097;28;20683;-77
2021/04/11 02:09:46;;;;;;;60.50;29.15;;;7.30;99.90;;;8.30;93.58;100765.31;5013209;28;20209;-77
2021/04/11 02:12:31;;;;;;;62.67;28.67;;;7.30;99.90;;;8.30;93.43;100770.53;5010308;28;20214;-77
2021/04/11 02:15:13;;;;;;;62.03;28.65;;;7.30;99.90;;;8.29;93.93;100764.44;5030124;28;20198;-77
2021/04/11 02:17:39;;;;;;;59.42;28.23;;;7.30;99.90;;;8.28;93.74;100751.47;5002539;28;20278;-77
2021/04/11 02:20:10;;;;;;;62.13;28.67;;;7.40;99.90;;;8.32;93.87;100759.16;5036814;28;20278;-77
2021/04/11 02:22:42;;;;;;;65.30;29.95;;;7.40;99.90;;;8.30;93.77;100760.09;5055369;28;20193;-76
2021/04/11 02:25:17;;;;;;;64.75;28.75;;;7.40;99.90;;;8.25;94.00;100755.03;5030350;28;20178;-76
2021/04/11 02:27:48;;;;;;;64.25;30.50;;;7.40;99.90;;;8.27;94.28;100754.97;5023386;28;20198;-77
2021/04/11 02:30:20;;;;;;;63.83;29.58;;;7.40;99.90;;;8.26;94.08;100748.03;5032829;28;20242;-76
2021/04/11 02:32:46;;;;;;;61.05;29.48;;;7.30;99.90;;;8.28;94.13;100741.03;5006508;28;20202;-77
2021/04/11 02:35:22;;;;;;;62.95;31.42;;;7.30;99.90;;;8.29;93.88;100732.34;5014060;28;20187;-76
2021/04/11 02:37:55;;;;;;;58.58;30.52;;;7.30;99.90;;;8.28;94.00;100730.59;5020813;28;20209;-77
2021/04/11 02:40:28;;;;;;;62.00;30.00;;;7.30;99.90;;;8.26;93.91;100729.78;5017063;28;20753;-77
2021/04/11 02:42:58;;;;;;;58.97;29.20;;;7.30;99.90;;;8.30;94.25;100728.81;5018634;28;20194;-77
2021/04/11 02:45:33;;;;;;;58.83;29.95;;;7.30;99.90;;;8.30;94.16;100729.69;5010883;28;20712;-76
2021/04/11 02:48:04;;;;;;;62.65;30.65;;;7.30;99.90;;;8.28;93.76;100736.69;5013162;28;20186;-77
2021/04/11 02:50:41;;;;;;;65.88;30.90;;;7.30;99.90;;;8.24;93.99;100726.41;5043553;28;20221;-76
2021/04/11 02:53:19;;;;;;;65.15;30.75;;;7.30;99.90;;;8.24;94.36;100718.56;5026323;28;20604;-76
2021/04/11 02:55:49;;;;;;;69.95;32.30;;;7.30;99.90;;;8.27;94.59;100716.72;5020111;28;20201;-77
2021/04/11 02:58:21;;;;;;;70.45;33.08;;;7.30;99.90;;;8.26;94.57;100708.94;5001738;28;20206;-77
2021/04/11 03:01:00;;;;;;;70.05;32.42;;;7.30;99.90;;;8.24;94.29;100708.16;5008805;28;20314;-76
2021/04/11 03:03:27;;;;;;;68.00;31.52;;;7.30;99.90;;;8.21;94.12;100700.34;5012596;28;20697;-76
2021/04/11 03:05:57;;;;;;;68.72;32.50;;;7.30;99.90;;;8.23;94.38;100701.19;5021281;28;20719;-77
2021/04/11 03:08:32;;;;;;;68.53;31.85;;;7.30;99.90;;;8.25;94.29;100686.38;5020225;28;20186;-76
2021/04/11 03:11:18;;;;;;;71.68;33.85;;;7.30;99.90;;;8.25;94.45;100689.00;5023899;28;20229;-77
2021/04/11 03:13:47;;;;;;;72.72;33.60;;;7.20;99.90;;;8.24;94.19;100687.31;5028292;28;20234;-75
2021/04/11 03:16:14;;;;;;;69.47;33.75;;;7.20;99.90;;;8.22;94.23;100689.06;5012325;28;20269;-76
2021/04/11 03:18:43;;;;;;;72.95;33.05;;;7.20;99.90;;;8.23;94.32;100678.63;5009714;28;20202;-75
2021/04/11 03:21:11;;;;;;;72.85;33.38;;;7.20;99.90;;;8.25;94.18;100681.19;5045818;28;20213;-75
2021/04/11 03:23:39;;;;;;;75.07;34.67;;;7.20;99.90;;;8.23;94.36;100673.41;5028532;28;20205;-76
2021/04/11 03:26:31;;;;;;;80.28;34.00;;;7.20;99.90;;;8.22;94.17;100673.41;5006847;28;20199;-76
2021/04/11 03:29:08;;;;;;;69.90;33.30;;;7.20;99.90;;;8.23;94.19;100669.91;5016297;28;20225;-76
2021/04/11 03:31:44;;;;;;;79.05;33.97;;;7.20;99.90;;;8.25;94.29;100671.63;5025467;28;20200;-77
2021/04/11 03:34:15;;;;;;;73.90;33.63;;;7.20;99.90;;;8.24;94.44;100661.25;5011996;28;20312;-75
2021/04/11 03:36:42;;;;;;;84.00;35.10;;;7.20;99.90;;;8.23;94.26;100659.47;5020850;28;20206;-76
2021/04/11 03:39:13;;;;;;;78.25;35.58;;;7.20;99.90;;;8.24;94.40;100653.41;5039928;28;20210;-77
2021/04/11 03:41:42;;;;;;;78.00;33.97;;;7.30;99.90;;;8.28;94.21;100657.63;5019167;28;20202;-76
2021/04/11 03:44:20;;;;;;;75.47;35.05;;;7.30;99.90;;;8.31;94.18;100667.94;5014518;28;20186;-75
2021/04/11 03:47:02;;;;;;;73.35;34.03;;;7.30;99.90;;;8.34;94.32;100670.50;5039146;28;20285;-76
2021/04/11 03:49:44;;;;;;;70.78;34.55;;;7.30;99.90;;;8.38;94.21;100666.88;5016621;28;20226;-76
2021/04/11 03:52:24;;;;;;;69.32;33.65;;;7.40;99.90;;;8.39;93.71;100676.44;5040818;28;20189;-77
2021/04/11 03:54:51;;;;;;;76.03;34.33;;;7.40;99.90;;;8.36;93.87;100658.25;5026076;28;20194;-76
2021/04/11 03:57:25;;;;;;;77.57;34.38;;;7.40;99.90;;;8.36;93.91;100669.53;5006163;28;20187;-76
2021/04/11 04:00:05;;;;;;;68.78;32.95;;;7.30;99.90;;;8.30;93.61;100664.50;5011829;28;20218;-74
2021/04/11 04:02:46;;;;;;;74.45;33.83;;;7.40;99.90;;;8.30;93.92;100658.44;5017238;28;20226;-76
2021/04/11 04:05:26;;;;;;;70.22;33.30;;;7.30;99.90;;;8.32;93.82;100651.44;5022752;28;20193;-76
2021/04/11 04:07:59;;;;;;;72.13;35.00;;;7.40;99.90;;;8.36;93.99;100650.44;5033763;28;20193;-76
2021/04/11 04:10:35;;;;;;;76.93;35.22;;;7.40;99.90;;;8.40;94.09;100646.84;5018400;28;20233;-76
2021/04/11 04:13:17;;;;;;;73.53;35.10;;;7.40;99.90;;;8.37;94.19;100636.50;5019160;28;20214;-76
2021/04/11 04:16:13;;;;;;;75.45;34.25;;;7.50;99.90;;;8.39;93.62;100632.09;5022357;28;20273;-77
2021/04/11 04:19:22;;;;;;;72.22;33.65;;;7.50;99.90;;;8.43;93.71;100636.31;5027861;28;20194;-75
2021/04/11 04:22:05;;;;;;;79.70;34.33;;;7.50;99.90;;;8.41;93.46;100628.53;5020834;28;20198;-74
2021/04/11 04:24:50;;;;;;;73.43;34.35;;;7.50;99.90;;;8.42;93.66;100624.19;5014476;28;20186;-76
2021/04/11 04:27:44;;;;;;;77.03;34.80;;;7.50;99.90;;;8.41;93.17;100632.88;5006522;28;20671;-77
2021/04/11 04:30:22;;;;;;;79.20;34.03;;;7.50;99.90;;;8.44;93.23;100627.59;5018272;28;20682;-76
2021/04/11 04:33:32;;;;;;;72.55;35.10;;;7.50;99.90;;;8.49;93.33;100633.53;5031274;28;20202;-77
2021/04/11 04:36:22;;;;;;;72.13;33.90;;;7.50;99.90;;;8.48;93.32;100632.66;5032651;28;20190;-76
2021/04/11 04:39:04;;;;;;;75.78;33.55;;;7.50;99.90;;;8.44;93.06;100625.84;5028447;28;20201;-74
2021/04/11 04:41:41;;;;;;;74.78;34.05;;;7.50;99.90;;;8.44;93.02;100628.44;5019170;28;20277;-77
2021/04/11 04:44:30;;;;;;;79.25;34.80;;;7.50;99.90;;;8.48;93.39;100629.19;5012708;28;20198;-77
2021/04/11 04:47:09;;;;;;;75.70;35.10;;;7.50;99.90;;;8.52;92.98;100636.03;5029495;28;20210;-76
2021/04/11 04:49:59;;;;;;;73.30;34.72;;;7.50;99.90;;;8.55;92.72;100630.72;5049620;28;20227;-78
2021/04/11 04:52:31;;;;;;;76.15;36.08;;;7.60;99.90;;;8.54;93.03;100629.88;5042425;28;20260;-79
2021/04/11 04:55:06;;;;;;;73.78;32.88;;;7.60;99.90;;;8.57;92.96;100636.75;5040562;28;20175;-76
2021/04/11 04:57:42;;;;;;;73.45;33.22;;;7.60;99.90;;;8.53;92.71;100636.00;5049743;28;20194;-76
2021/04/11 05:00:19;;;;;;;73.65;34.95;;;7.60;99.90;;;8.56;92.66;100643.72;5033106;28;20217;-77
2021/04/11 05:03:11;;;;;;;74.97;35.38;;;7.60;99.90;;;8.60;92.61;100636.66;5018508;28;20206;-77
2021/04/11 05:05:45;;;;;;;72.38;34.92;;;7.60;99.90;;;8.58;92.42;100621.06;5039375;28;20221;-78
2021/04/11 05:08:18;;;;;;;72.15;34.30;;;7.60;99.90;;;8.59;92.42;100637.56;5046936;28;20194;-76
2021/04/11 05:10:52;;;;;;;65.18;33.00;;;7.70;99.90;;;8.62;92.22;100627.03;5038358;28;20217;-79
2021/04/11 05:13:42;;;;;;;73.55;33.15;;;7.70;99.90;;;8.64;92.49;100635.66;5038923;28;20206;-77
2021/04/11 05:16:18;;;;;;;69.50;33.95;;;7.70;99.90;;;8.65;92.23;100642.59;5014827;28;20699;-77
2021/04/11 05:18:56;;;;;;;66.63;32.50;;;7.80;99.90;;;8.68;92.21;100632.91;5015235;28;20194;-78
2021/04/11 05:21:37;;;;;;;67.32;32.58;;;7.80;99.90;;;8.70;92.01;100619.81;5031830;28;20327;-77
2021/04/11 05:24:11;;;;;;;72.50;33.70;;;7.80;99.90;;;8.73;92.12;100622.31;5059267;28;20968;-78
2021/04/11 05:26:49;;;;;;;73.55;31.85;;;7.80;99.90;;;8.77;92.15;100621.34;5017046;28;20174;-77
2021/04/11 05:29:39;;;;;;;65.63;32.50;;;7.90;99.90;;;8.77;91.79;100606.50;5021561;28;20205;-77
2021/04/11 05:32:06;;;;;;;71.32;33.00;;;7.90;99.90;;;8.81;91.85;100607.28;5019453;28;20257;-77
2021/04/11 05:34:33;;;;;;;68.90;34.30;;;7.90;99.90;;;8.82;91.71;100615.03;5019376;28;20209;-77
2021/04/11 05:37:10;;;;;;;63.10;31.75;;;7.90;99.90;;;8.81;91.79;100628.16;5025817;28;20253;-78
2021/04/11 05:39:47;;;;;;;60.90;32.08;;;7.90;99.90;;;8.81;91.96;100622.94;5021616;28;20233;-77
2021/04/11 05:42:22;;;;;;;70.00;34.15;;;7.90;99.90;;;8.82;92.11;100614.22;5033572;28;20705;-76
2021/04/11 05:44:57;;;;;;;70.32;32.95;;;7.90;99.90;;;8.85;91.98;100608.91;5028620;28;20197;-76
2021/04/11 05:47:38;;;;;;;67.45;32.42;;;7.90;99.90;;;8.91;91.90;100602.63;5017835;28;20197;-75
2021/04/11 05:50:14;;;;;;;66.55;33.40;;;7.90;99.90;;;8.96;91.90;100612.00;5021531;28;22424;-78
2021/04/11 05:52:49;;;;;;;69.00;33.17;;;7.90;99.90;;;8.95;91.44;100605.09;5057491;28;20204;-76
2021/04/11 05:55:20;;;;;;;75.90;32.70;;;7.90;99.90;;;8.96;91.41;100614.59;5046886;28;20193;-78
2021/04/11 05:57:54;;;;;;;69.70;33.33;;;7.90;99.90;;;8.91;91.49;100595.63;5017901;28;20575;-76
2021/04/11 06:00:27;;;;;;;68.85;34.17;;;7.90;99.90;;;8.86;91.31;100601.00;5004841;28;20210;-75
2021/04/11 06:02:58;;;;;;;68.85;33.95;;;7.90;99.90;;;8.84;91.31;100599.38;5009015;28;20263;-76
2021/04/11 06:05:32;;;;;;;71.68;33.88;;;7.90;99.90;;;8.85;91.75;100599.31;5011181;28;20198;-75
2021/04/11 06:08:10;;;;;;;68.45;33.08;;;7.90;99.90;;;8.86;91.38;100606.22;5023400;28;20204;-76
2021/04/11 06:10:48;;;;;;;66.13;32.92;;;7.90;99.90;;;8.89;91.29;100587.03;5014777;28;20550;-76
2021/04/11 06:13:28;;;;;;;69.95;33.20;;;8.00;99.90;;;8.89;91.44;100580.03;5013444;28;20221;-78
2021/04/11 06:16:02;;;;;;;67.60;31.58;;;8.00;99.90;;;8.92;91.23;100583.44;5027712;28;20662;-75
2021/04/11 06:18:30;;;;;;;68.22;32.05;;;8.00;99.90;;;8.92;91.06;100586.06;5015260;28;20277;-77
2021/04/11 06:21:07;;;;;;;64.68;32.17;;;8.00;99.90;;;8.91;90.95;100585.19;5016426;28;20241;-76
2021/04/11 06:23:44;;;;;;;65.10;32.83;;;8.10;99.90;;;8.97;90.82;100576.31;5036534;28;20661;-75
2021/04/11 06:26:27;;;;;;;65.57;31.58;;;8.10;99.90;;;9.04;90.40;100563.03;5019829;28;20683;-78
2021/04/11 06:29:05;;;;;;;64.82;31.88;;;8.20;99.90;;;9.13;90.28;100562.69;5019998;28;20202;-76
2021/04/11 06:31:38;;;;;;;65.60;31.95;;;8.20;99.90;;;9.16;89.86;100557.38;5011228;28;20697;-76
2021/04/11 06:34:12;;;;;;;66.07;31.25;;;8.20;99.90;;;9.17;89.67;100548.66;5029124;28;20198;-75
2021/04/11 06:36:46;;;;;;;64.18;31.15;;;8.20;99.90;;;9.17;89.46;100558.22;5017653;28;20789;-75
2021/04/11 06:39:22;;;;;;;62.85;31.33;;;8.20;99.90;;;9.15;89.13;100554.81;5034532;28;20669;-74
2021/04/11 06:42:18;;;;;;;58.80;30.73;;;8.30;99.90;;;9.14;89.31;100564.44;5028185;28;20217;-78
2021/04/11 06:45:05;;;;;;;60.75;29.65;;;8.30;99.90;;;9.17;89.35;100560.84;5025348;28;20246;-75
2021/04/11 06:47:57;;;;;;;62.33;30.90;;;8.40;99.90;;;9.21;89.07;100554.63;5021192;28;20208;-76
2021/04/11 06:50:50;;;;;;;59.83;29.65;;;8.40;99.90;;;9.22;89.18;100557.19;5022856;28;20226;-72
2021/04/11 06:54:02;;;;;;;60.42;29.48;;;8.50;99.90;;;9.22;89.23;100551.09;5019768;28;20189;-74
2021/04/11 06:57:00;;;;;;;60.67;29.90;;;8.60;99.90;;;9.31;88.84;100551.63;5007505;28;20210;-74
2021/04/11 06:59:51;;;;;;;57.50;29.33;;;8.70;99.90;;;9.42;88.83;100553.84;4999343;28;20320;-73
2021/04/11 07:03:25;;;;;;;59.75;29.58;;;8.80;99.90;;;9.54;88.15;100554.28;5002296;28;20223;-75
2021/04/11 07:06:42;;;;;;;57.90;29.88;;;8.90;99.90;;;9.54;88.38;100545.59;5011952;28;20226;-73
2021/04/11 07:09:43;;;;;;;56.63;29.10;;;8.90;99.90;;;9.62;87.99;100535.72;5020757;28;20218;-75
2021/04/11 07:13:06;;;;;;;61.45;28.52;;;9.00;99.90;;;9.68;87.94;100541.56;5053560;28;20228;-74
2021/04/11 07:16:19;;;;;;;56.58;29.27;;;9.10;99.90;;;9.70;87.35;100544.13;5032605;28;20190;-76
2021/04/11 07:19:35;;;;;;;53.42;27.88;;;9.10;99.90;;;9.70;87.35;100552.81;5030439;28;20194;-74
2021/04/11 07:22:57;;;;;;;56.00;27.15;;;9.10;99.90;;;9.82;87.50;100549.75;5005169;28;20230;-76
2021/04/11 07:25:51;;;;;;;53.80;27.50;;;9.20;99.90;;;9.83;87.23;100556.66;5028352;28;20292;-76
2021/04/11 07:28:34;;;;;;;55.75;27.27;;;9.20;99.90;;;9.81;86.97;100553.25;5025447;28;20218;-78
2021/04/11 07:31:19;;;;;;;57.88;28.63;;;9.20;99.90;;;9.92;87.21;100553.72;5019444;28;20950;-76
2021/04/11 07:34:18;;;;;;;54.45;28.08;;;9.20;99.90;;;10.15;87.08;100544.19;5010848;28;20644;-77
2021/04/11 07:37:22;;;;;;;56.15;28.10;;;9.50;99.90;;;10.39;86.77;100551.94;5015024;28;20213;-74
2021/04/11 07:40:02;;;;;;;47.53;26.02;;;9.70;99.90;;;10.50;86.28;100546.28;5003582;28;20643;-73
2021/04/11 07:42:53;;;;;;;51.30;26.65;;;9.90;99.90;;;10.56;85.60;100548.63;5004809;28;20253;-75
2021/04/11 07:45:34;;;;;;;52.67;25.88;;;10.00;99.90;;;10.59;84.68;100549.38;5014946;28;20193;-76
2021/04/11 07:49:07;;;;;;;49.05;25.55;;;10.10;99.90;;;10.67;84.84;100543.81;5017550;28;20208;-73
2021/04/11 07:51:55;;;;;;;43.45;23.00;;;10.20;99.90;;;10.80;84.30;100537.19;4980162;28;20290;-74
2021/04/11 07:54:50;;;;;;;50.08;24.98;;;10.40;99.90;;;10.94;84.14;100540.06;4976187;28;20195;-72
2021/04/11 07:57:40;;;;;;;50.70;26.10;;;10.50;99.90;;;11.05;83.72;100545.72;5010662;28;20201;-74
2021/04/11 08:00:18;;;;;;;49.90;25.77;;;10.60;99.90;;;11.11;83.39;100551.53;5022259;28;20226;-74
2021/04/11 08:03:29;;;;;;;47.50;23.75;;;10.70;99.90;;;11.19;82.92;100548.56;5005476;28;20706;-74
2021/04/11 08:06:23;;;;;;;44.92;23.42;;;10.80;99.90;;;11.29;82.49;100545.50;4968353;28;20742;-74
2021/04/11 08:09:12;;;;;;;42.38;23.45;;;10.80;99.90;;;11.42;82.32;100542.34;5007521;28;20659;-75
2021/04/11 08:12:20;;;;;;;46.03;23.00;;;10.90;99.90;;;11.56;81.98;100546.06;5022569;28;20363;-75
2021/04/11 08:15:00;;;;;;;38.53;21.90;;;11.10;99.90;;;11.69;81.77;100536.75;5008641;28;20197;-75
2021/04/11 08:17:49;;;;;;;44.15;21.45;;;11.20;99.90;;;11.76;80.53;100535.56;5015596;28;20197;-78
2021/04/11 08:20:46;;;;;;;38.13;21.17;;;11.30;99.90;;;11.86;80.46;100536.84;5008822;28;20301;-76
2021/04/11 08:23:41;;;;;;;40.60;21.63;;;11.40;99.90;;;11.93;79.56;100535.66;5026049;28;20201;-75
2021/04/11 08:26:35;;;;;;;40.17;20.95;;;11.50;99.90;;;12.06;79.60;100531.53;5028692;28;20194;-75
2021/04/11 08:29:28;;;;;;;38.15;19.48;;;11.60;99.90;;;12.16;78.35;100530.19;5022615;28;20255;-74
2021/04/11 08:32:57;;;;;;;37.70;20.60;;;11.70;99.90;;;12.29;78.25;100523.44;5019971;28;20285;-73
2021/04/11 08:35:41;;;;;;;34.63;19.33;;;11.90;99.90;;;12.47;77.65;100530.41;5018788;28;20209;-75
2021/04/11 08:38:53;;;;;;;33.70;18.50;;;12.10;99.90;;;12.57;77.28;100523.78;5025380;28;20610;-75
2021/04/11 08:41:48;;;;;;;36.60;18.58;;;12.20;99.90;;;12.66;76.46;100511.16;5023963;28;20244;-74
2021/04/11 08:44:32;;;;;;;38.08;18.33;;;12.30;99.90;;;12.70;76.11;100529.31;5017979;28;20663;-73
2021/04/11 08:47:16;;;;;;;37.17;19.10;;;12.30;99.90;;;12.84;76.01;100518.13;5032655;28;20205;-73
2021/04/11 08:49:52;;;;;;;31.75;17.33;;;12.50;99.90;;;12.89;75.43;100521.38;5022737;28;20228;-74
2021/04/11 08:52:44;;;;;;;33.75;17.33;;;12.50;99.90;;;12.89;74.34;100510.84;5025196;28;20220;-75
2021/04/11 08:55:29;;;;;;;32.17;16.38;;;12.50;99.90;;;12.87;73.94;100508.31;5011133;28;20201;-70
2021/04/11 08:58:33;;;;;;;31.08;16.98;;;12.50;99.90;;;12.89;74.12;100502.97;5033382;28;20207;-77
2021/04/11 09:01:19;;;;;;;30.55;15.63;;;12.50;99.90;;;12.97;74.29;100506.06;4916349;29;20220;-74
2021/04/11 09:04:04;;;;;;;33.13;17.23;;;12.50;99.90;;;13.04;73.86;100496.97;4934539;29;20235;-77
2021/04/11 09:06:43;;;;;;;32.75;17.00;;;12.50;99.90;;;13.05;73.50;100493.41;4973553;28;20209;-73
2021/04/11 09:09:57;;;;;;;28.83;16.23;;;12.60;99.90;;;13.14;73.42;100492.94;5010753;28;20702;-74
2021/04/11 09:12:41;;;;;;;33.78;16.40;;;12.70;99.90;;;13.20;72.68;100497.88;5000858;28;20194;-75
2021/04/11 09:15:23;;;;;;;32.17;16.25;;;12.80;99.90;;;13.28;72.76;100498.34;5020409;28;20194;-74
2021/04/11 09:18:16;;;;;;;30.70;15.70;;;12.90;99.90;;;13.41;72.17;100483.63;5025292;28;20230;-75
2021/04/11 09:21:07;;;;;;;29.50;15.77;;;13.10;99.90;;;13.46;72.41;100481.59;5021992;28;20658;-73
2021/04/11 09:23:47;;;;;;;31.75;15.65;;;13.10;99.90;;;13.48;72.01;100483.22;5006770;28;20578;-74
2021/04/11 09:26:53;;;;;;;30.50;16.25;;;13.10;99.90;;;13.60;71.74;100476.44;5011008;28;20197;-74
2021/04/11 09:29:35;;;;;;;29.90;14.85;;;13.20;99.90;;;13.71;71.13;100479.38;5001461;28;20214;-73
2021/04/11 09:32:27;;;;;;;30.55;15.82;;;13.30;99.90;;;13.77;71.03;100487.75;5008675;28;20202;-73
2021/04/11 09:35:25;;;;;;;28.48;14.52;;;13.30;99.90;;;13.92;71.17;100490.47;5015101;28;20273;-77
2021/04/11 09:38:37;;;;;;;27.58;14.70;;;13.50;99.90;;;14.08;70.70;100496.59;5003033;28;20548;-76
2021/04/11 09:41:40;;;;;;;30.38;15.48;;;13.70;99.90;;;14.16;70.77;100503.16;5010459;28;20214;-74
2021/04/11 09:44:42;;;;;;;28.60;14.57;;;13.70;99.90;;;14.19;70.88;100507.38;5011306;28;20204;-73
2021/04/11 09:47:36;;;;;;;26.17;14.07;;;13.80;99.90;;;14.18;71.18;100505.69;5006758;28;20186;-76
2021/04/11 09:50:18;;;;;;;28.38;14.40;;;13.80;99.90;;;14.17;71.13;100504.81;5017482;28;20225;-73
2021/04/11 09:53:14;;;;;;;27.63;14.98;;;13.80;99.90;;;14.19;71.04;100489.81;5030145;28;20205;-72
2021/04/11 09:55:46;;;;;;;24.33;13.85;;;13.80;99.90;;;14.21;70.86;100498.47;5018306;28;20199;-73
2021/04/11 09:58:38;;;;;;;28.13;14.68;;;13.80;99.90;;;14.31;70.54;100489.16;5046704;28;20200;-75
2021/04/11 10:01:20;;;;;;;25.75;14.50;;;13.90;99.90;;;14.44;70.47;100486.66;5019307;28;20241;-77
2021/04/11 10:04:02;;;;;;;29.40;14.52;;;14.00;99.90;;;14.53;70.35;100489.63;5038299;28;20181;-76
2021/04/11 10:07:03;;;;;;;29.48;14.77;;;14.20;99.90;;;14.63;70.16;100493.44;5030294;28;20185;-73
2021/04/11 10:09:59;;;;;;;26.52;13.75;;;14.30;99.90;;;14.70;70.09;100481.59;5048052;28;20236;-77
2021/04/11 10:12:56;;;;;;;25.33;13.52;;;14.50;99.90;;;14.82;70.04;100480.88;5047737;28;20189;-73
2021/04/11 10:15:29;;;;;;;25.98;13.65;;;14.60;99.90;;;14.95;69.35;100479.19;5026654;28;20208;-80
2021/04/11 10:18:32;;;;;;;26.00;13.18;;;14.70;99.90;;;15.08;68.87;100477.56;5048141;28;20234;-78
2021/04/11 10:21:20;;;;;;;22.88;12.55;;;14.80;99.90;;;15.19;68.32;100471.63;5031381;28;20220;-77
2021/04/11 10:24:08;;;;;;;26.10;12.35;;;14.90;99.90;;;15.29;67.48;100471.94;5021717;28;20222;-73
2021/04/11 10:26:43;;;;;;;24.95;11.25;;;15.00;99.90;;;15.32;66.79;100472.56;5021781;28;20253;-72
2021/04/11 10:29:17;;;;;;;20.83;11.32;;;15.10;99.90;;;15.40;66.37;100465.09;5052314;28;20324;-72
2021/04/11 10:31:58;;;;;;;21.35;10.63;;;15.20;99.90;;;15.55;66.19;100468.56;5004654;28;20202;-73
2021/04/11 10:34:34;;;;;;;21.63;11.68;;;15.30;99.90;;;15.63;65.55;100461.00;5015692;28;20202;-72
2021/04/11 10:37:16;;;;;;;24.42;12.57;;;15.40;99.90;;;15.70;65.33;100465.81;5016866;28;20206;-73
2021/04/11 10:39:58;;;;;;;24.30;12.77;;;15.50;99.90;;;15.75;65.51;100454.97;5025776;28;20707;-72
2021/04/11 10:42:42;;;;;;;22.20;11.98;;;15.50;99.90;;;15.93;65.05;100461.72;5008278;28;20210;-73
2021/04/11 10:45:22;;;;;;;20.85;10.25;;;15.70;99.90;;;16.14;65.06;100452.44;5019470;28;20661;-71
2021/04/11 10:48:33;;;;;;;23.05;10.88;;;16.00;99.90;;;16.33;64.27;100453.78;5030650;28;20197;-71
2021/04/11 10:51:23;;;;;;;20.05;10.48;;;16.20;99.90;;;16.46;63.64;100450.38;5010592;28;20276;-73
2021/04/11 10:54:20;;;;;;;23.92;12.35;;;16.50;99.90;;;16.61;63.17;100446.72;5020403;28;20201;-74
2021/04/11 10:57:10;;;;;;;21.85;10.75;;;16.60;99.90;;;16.72;62.56;100445.03;5018196;28;20193;-72
2021/04/11 11:00:10;;;;;;;20.05;10.18;;;16.80;99.90;;;16.82;61.95;100453.19;5022905;28;20210;-72
2021/04/11 11:03:29;;;;;;;19.33;10.18;;;16.70;99.90;;;16.91;61.82;100449.94;5005066;28;20209;-72
2021/04/11 11:06:44;;;;;;;23.15;11.25;;;16.80;99.90;;;17.03;61.65;100454.41;4977977;28;20228;-73